Glenford, Ohio
Current Conditions -  °F | °C
As of 7:54 AM on Monday 22 Dec 2014 (Local Time) from KVTA Reporting Station
Haze Haze  
Wind Chill: 27°   Ceiling: 5000
Heat Index: 27°   Visibility: 6mi
Dew Point: 22°   Wind: 0mph
Humidity: 81%   Direction: NA
Pressure: 30.09"   Gusts: NA
Location:  39.89°N, 82.32°W
Report Text: KVTA 221254Z AUTO 00000KT 6SM HZ OVC050 M03/M06 A3009 RMK AO2 SLP200 T10281056
Loading
Personal Weather Stations






























Interactive Weather Map New forecast layout! Learn more

10-Day Weather Forecast

Advertisements
Track Severe Weather on mobile